createdAt,value
2017-07-15T00:01:13.503Z,40.32
2017-07-15T00:02:13.103Z,40.22
2017-07-15T00:03:13.040Z,40.32
2017-07-15T00:04:13.309Z,40.22
2017-07-15T00:05:13.251Z,40.22
2017-07-15T00:06:12.850Z,40.22
2017-07-15T00:07:13.135Z,40.22
2017-07-15T00:08:13.058Z,40.32
2017-07-15T00:09:13.002Z,40.22
2017-07-15T00:10:12.938Z,40.22
2017-07-15T00:11:12.871Z,40.22
2017-07-15T00:12:12.805Z,40.03
2017-07-15T00:13:12.744Z,40.12
2017-07-15T00:14:12.682Z,40.51
2017-07-15T00:15:12.620Z,40.42
2017-07-15T00:16:12.554Z,40.7
2017-07-15T00:17:12.512Z,40.32
2017-07-15T00:18:12.433Z,40.42
2017-07-15T00:19:12.369Z,40.61
2017-07-15T00:20:12.305Z,40.12
2017-07-15T00:21:11.906Z,40.51
2017-07-15T00:22:12.177Z,40.42
2017-07-15T00:23:11.781Z,40.32
2017-07-15T00:24:12.051Z,40.22
2017-07-15T00:25:11.990Z,40.22
2017-07-15T00:26:11.926Z,40.12
2017-07-15T00:27:11.863Z,40.42
2017-07-15T00:28:11.801Z,40.12
2017-07-15T00:29:11.740Z,40.42
2017-07-15T00:30:11.683Z,40.32
2017-07-15T00:31:11.617Z,40.42
2017-07-15T00:32:11.555Z,40.22
2017-07-15T00:33:11.486Z,40.32
2017-07-15T00:34:11.088Z,40.32
2017-07-15T00:35:11.365Z,40.22
2017-07-15T00:36:10.962Z,40.8
2017-07-15T00:37:11.236Z,40.8
2017-07-15T00:38:11.175Z,40.51
2017-07-15T00:39:10.773Z,40.61
2017-07-15T00:40:10.712Z,40.51
2017-07-15T00:41:10.983Z,40.51
2017-07-15T00:42:10.925Z,40.61
2017-07-15T00:43:10.523Z,40.61
2017-07-15T00:44:10.797Z,40.8
2017-07-15T00:45:10.731Z,40.7
2017-07-15T00:46:10.335Z,40.9
2017-07-15T00:47:10.607Z,40.9
2017-07-15T00:48:10.543Z,41.19
2017-07-15T00:49:10.144Z,41.09
2017-07-15T00:50:10.419Z,41.09
2017-07-15T00:51:10.355Z,40.99
2017-07-15T00:52:10.293Z,41.09
2017-07-15T00:53:10.242Z,40.99
2017-07-15T00:54:10.165Z,40.8
2017-07-15T00:55:10.102Z,41.28
2017-07-15T00:56:09.704Z,40.9
2017-07-15T00:57:09.977Z,40.9
2017-07-15T00:58:09.915Z,41.09
2017-07-15T00:59:09.851Z,40.8
2017-07-15T01:00:09.786Z,41.57
2017-07-15T01:01:09.732Z,41.09
2017-07-15T01:02:09.665Z,41.19
2017-07-15T01:03:09.599Z,40.99
2017-07-15T01:04:09.537Z,41.28
2017-07-15T01:05:09.138Z,40.99
2017-07-15T01:06:09.414Z,40.99
2017-07-15T01:07:09.348Z,41.19
2017-07-15T01:08:08.950Z,41.19
2017-07-15T01:09:09.221Z,40.99
2017-07-15T01:10:09.159Z,40.9
2017-07-15T01:11:09.097Z,41.19
2017-07-15T01:12:09.035Z,40.51
2017-07-15T01:13:08.973Z,40.99
2017-07-15T01:14:08.573Z,41.38
2017-07-15T01:15:08.845Z,40.61
2017-07-15T01:16:08.815Z,40.99
2017-07-15T01:17:08.719Z,40.7
2017-07-15T01:18:08.655Z,40.9
2017-07-15T01:19:08.591Z,41.28
2017-07-15T01:20:08.530Z,40.99
2017-07-15T01:21:08.465Z,41.19
2017-07-15T01:22:08.402Z,41.28
2017-07-15T01:23:08.338Z,41.57
2017-07-15T01:24:08.277Z,41.38
2017-07-15T01:25:08.222Z,41.57
2017-07-15T01:26:07.826Z,41.38
2017-07-15T01:27:08.091Z,41.57
2017-07-15T01:28:07.690Z,41.28
2017-07-15T01:29:07.962Z,41.28
2017-07-15T01:30:07.766Z,40.99
2017-07-15T01:31:07.839Z,41.09
2017-07-15T01:32:07.775Z,41.09
2017-07-15T01:33:07.723Z,40.99
2017-07-15T01:34:07.650Z,41.09
2017-07-15T01:35:07.790Z,41.28
2017-07-15T01:36:07.524Z,40.9
2017-07-15T01:37:07.463Z,41.48
2017-07-15T01:38:07.399Z,41.57
2017-07-15T01:39:07.342Z,41.57
2017-07-15T01:40:07.273Z,41.67
2017-07-15T01:41:06.876Z,41.28
2017-07-15T01:42:07.148Z,41.57
2017-07-15T01:43:07.091Z,41.57
2017-07-15T01:44:07.022Z,41.48
2017-07-15T01:45:06.956Z,41.57
2017-07-15T01:46:06.892Z,41.28
2017-07-15T01:47:06.832Z,41.19
2017-07-15T01:48:06.769Z,41.19
2017-07-15T01:49:06.704Z,41.48
2017-07-15T01:50:06.642Z,41.19
2017-07-15T01:51:06.579Z,41.19
2017-07-15T01:52:06.182Z,41.38
2017-07-15T01:53:06.118Z,41.19
2017-07-15T01:54:06.054Z,41.38
2017-07-15T01:55:05.992Z,41.28
2017-07-15T01:56:05.932Z,41.28
2017-07-15T01:57:06.202Z,41.28
2017-07-15T01:58:06.138Z,41.48
2017-07-15T01:59:05.740Z,41.38
2017-07-15T02:00:06.112Z,41.19
2017-07-15T02:01:05.616Z,41.19
2017-07-15T02:02:05.887Z,41.28
2017-07-15T02:03:05.832Z,41.28
2017-07-15T02:04:05.766Z,41.48
2017-07-15T02:05:05.700Z,41.48
2017-07-15T02:06:05.636Z,41.28
2017-07-15T02:07:05.572Z,41.38
2017-07-15T02:08:05.174Z,41.48
2017-07-15T02:09:05.111Z,41.57
2017-07-15T02:10:05.387Z,41.48
2017-07-15T02:11:05.322Z,41.67
2017-07-15T02:12:04.925Z,41.67
2017-07-15T02:13:05.197Z,41.57
2017-07-15T02:14:04.796Z,41.48
2017-07-15T02:15:04.736Z,41.77
2017-07-15T02:16:04.673Z,41.57
2017-07-15T02:17:04.942Z,41.57
2017-07-15T02:18:04.546Z,41.19
2017-07-15T02:19:04.483Z,41.28
2017-07-15T02:20:04.419Z,41.57
2017-07-15T02:21:04.358Z,41.38
2017-07-15T02:22:04.293Z,41.48
2017-07-15T02:23:04.567Z,41.77
2017-07-15T02:24:04.507Z,41.67
2017-07-15T02:25:04.110Z,41.57
2017-07-15T02:26:04.381Z,41.48
2017-07-15T02:27:04.319Z,41.38
2017-07-15T02:28:04.252Z,41.67
2017-07-15T02:29:04.189Z,41.77
2017-07-15T02:30:04.131Z,41.77
2017-07-15T02:31:04.067Z,41.67
2017-07-15T02:32:03.667Z,41.67
2017-07-15T02:33:03.937Z,41.57
2017-07-15T02:34:03.543Z,41.77
2017-07-15T02:35:03.814Z,41.67
2017-07-15T02:36:03.748Z,41.48
2017-07-15T02:37:03.687Z,41.57
2017-07-15T02:38:03.628Z,41.77
2017-07-15T02:39:03.561Z,41.86
2017-07-15T02:40:03.497Z,41.96
2017-07-15T02:41:03.099Z,41.77
2017-07-15T02:42:03.370Z,41.96
2017-07-15T02:43:02.974Z,41.96
2017-07-15T02:44:02.911Z,41.86
2017-07-15T02:45:03.331Z,41.86
2017-07-15T02:46:03.131Z,41.67
2017-07-15T02:47:02.723Z,41.67
2017-07-15T02:48:03.007Z,41.96
2017-07-15T02:49:02.932Z,42.05
2017-07-15T02:50:02.536Z,42.35
2017-07-15T02:51:02.473Z,41.86
2017-07-15T02:52:02.408Z,42.05
2017-07-15T02:53:02.357Z,42.05
2017-07-15T02:54:02.618Z,42.35
2017-07-15T02:55:02.220Z,42.05
2017-07-15T02:56:02.494Z,41.96
2017-07-15T02:57:02.430Z,42.05
2017-07-15T02:58:02.365Z,42.15
2017-07-15T02:59:02.304Z,41.96
2017-07-15T03:00:01.905Z,42.83
2017-07-15T03:01:02.178Z,42.05
2017-07-15T03:02:02.114Z,42.05
2017-07-15T03:03:01.718Z,42.44
2017-07-15T03:04:01.653Z,42.63
2017-07-15T03:05:01.926Z,42.35
2017-07-15T03:06:01.863Z,42.35
2017-07-15T03:07:01.800Z,42.83
2017-07-15T03:08:01.401Z,42.54
2017-07-15T03:09:01.674Z,42.63
2017-07-15T03:10:01.614Z,42.54
2017-07-15T03:11:01.574Z,42.44
2017-07-15T03:12:01.493Z,42.63
2017-07-15T03:13:01.443Z,42.63
2017-07-15T03:14:01.364Z,42.44
2017-07-15T03:15:01.298Z,42.54
2017-07-15T03:16:01.234Z,42.73
2017-07-15T03:17:00.838Z,42.73
2017-07-15T03:18:00.775Z,42.83
2017-07-15T03:19:01.063Z,42.83
2017-07-15T03:20:00.985Z,42.93
2017-07-15T03:21:00.921Z,42.93
2017-07-15T03:22:00.859Z,43.12
2017-07-15T03:23:00.794Z,42.93
2017-07-15T03:24:00.732Z,43.12
2017-07-15T03:25:00.668Z,43.41
2017-07-15T03:26:00.608Z,43.02
2017-07-15T03:27:00.545Z,43.31
2017-07-15T03:28:00.482Z,43.12
2017-07-15T03:29:00.417Z,43.41
2017-07-15T03:30:00.366Z,43.21
2017-07-15T03:31:00.291Z,43.21
2017-07-15T03:32:00.229Z,43.7
2017-07-15T03:33:00.166Z,43.31
2017-07-15T03:34:00.107Z,43.6
2017-07-15T03:35:00.041Z,43.6
2017-07-15T03:35:59.643Z,43.98
2017-07-15T03:36:59.914Z,44.18
2017-07-15T03:37:59.853Z,43.89
2017-07-15T03:38:59.789Z,44.18
2017-07-15T03:39:59.728Z,43.89
2017-07-15T03:40:59.663Z,44.27
2017-07-15T03:41:59.601Z,43.89
2017-07-15T03:42:59.538Z,43.89
2017-07-15T03:43:59.474Z,43.89
2017-07-15T03:44:59.415Z,44.08
2017-07-15T03:45:59.356Z,43.79
2017-07-15T03:46:59.282Z,43.89
2017-07-15T03:47:58.886Z,44.27
2017-07-15T03:48:59.161Z,43.98
2017-07-15T03:49:59.099Z,44.46
2017-07-15T03:50:59.033Z,44.08
2017-07-15T03:51:58.634Z,44.08
2017-07-15T03:52:58.912Z,44.18
2017-07-15T03:53:58.846Z,44.08
2017-07-15T03:54:58.782Z,43.7
2017-07-15T03:55:59.119Z,43.79
2017-07-15T03:56:58.666Z,43.79
2017-07-15T03:57:58.592Z,43.7
2017-07-15T03:58:58.538Z,43.6
2017-07-15T03:59:58.468Z,44.37
2017-07-15T04:00:58.658Z,44.18
2017-07-15T04:01:58.006Z,43.98
2017-07-15T04:02:58.287Z,44.27
2017-07-15T04:03:58.216Z,43.98
2017-07-15T04:04:58.162Z,43.6
2017-07-15T04:05:58.094Z,44.18
2017-07-15T04:06:57.703Z,43.7
2017-07-15T04:07:57.993Z,43.98
2017-07-15T04:08:57.928Z,44.08
2017-07-15T04:09:57.837Z,44.37
2017-07-15T04:10:57.784Z,43.6
2017-07-15T04:11:57.404Z,43.6
2017-07-15T04:12:57.315Z,44.27
2017-07-15T04:13:57.596Z,44.08
2017-07-15T04:14:57.189Z,44.18
2017-07-15T04:15:57.133Z,44.56
2017-07-15T04:16:57.409Z,44.95
2017-07-15T04:17:57.344Z,44.46
2017-07-15T04:18:57.274Z,44.66
2017-07-15T04:19:57.223Z,44.66
2017-07-15T04:20:57.146Z,44.66
2017-07-15T04:21:57.088Z,44.56
2017-07-15T04:22:57.020Z,44.76
2017-07-15T04:23:56.625Z,45.04
2017-07-15T04:24:56.560Z,45.24
2017-07-15T04:25:56.830Z,45.34
2017-07-15T04:26:56.767Z,45.34
2017-07-15T04:27:56.706Z,45.04
2017-07-15T04:28:56.646Z,45.04
2017-07-15T04:29:56.583Z,45.43
2017-07-15T04:30:56.516Z,45.34
2017-07-15T04:31:56.455Z,45.43
2017-07-15T04:32:56.396Z,45.34
2017-07-15T04:33:55.994Z,45.62
2017-07-15T04:34:56.266Z,45.62
2017-07-15T04:35:55.867Z,45.34
2017-07-15T04:36:56.144Z,46.11
2017-07-15T04:37:56.082Z,46.11
2017-07-15T04:38:56.016Z,45.92
2017-07-15T04:39:55.952Z,45.92
2017-07-15T04:40:55.891Z,45.62
2017-07-15T04:41:55.830Z,45.62
2017-07-15T04:42:55.762Z,46.11
2017-07-15T04:43:55.700Z,46.2
2017-07-15T04:44:55.639Z,46.11
2017-07-15T04:45:55.240Z,46.2
2017-07-15T04:46:55.766Z,46.4
2017-07-15T04:47:55.453Z,46.3
2017-07-15T04:48:55.387Z,46.3
2017-07-15T04:49:55.324Z,46.01
2017-07-15T04:50:55.262Z,46.3
2017-07-15T04:51:55.113Z,46.69
2017-07-15T04:52:55.136Z,46.78
2017-07-15T04:53:55.319Z,46.78
2017-07-15T04:54:54.675Z,46.97
2017-07-15T04:55:54.945Z,46.78
2017-07-15T04:56:54.884Z,46.49
2017-07-15T04:57:54.485Z,46.59
2017-07-15T04:58:54.761Z,46.69
2017-07-15T04:59:54.697Z,46.59
2017-07-15T05:00:54.634Z,46.49
2017-07-15T05:01:54.569Z,46.49
2017-07-15T05:02:54.507Z,46.69
2017-07-15T05:03:54.445Z,46.69
2017-07-15T05:04:54.381Z,46.78
2017-07-15T05:05:54.519Z,46.97
2017-07-15T05:06:54.256Z,47.07
2017-07-15T05:07:54.195Z,47.27
2017-07-15T05:08:53.794Z,47.55
2017-07-15T05:09:54.073Z,47.45
2017-07-15T05:10:54.005Z,47.27
2017-07-15T05:11:53.605Z,47.07
2017-07-15T05:12:53.547Z,47.45
2017-07-15T05:13:53.481Z,47.45
2017-07-15T05:14:53.750Z,47.85
2017-07-15T05:15:53.689Z,47.85
2017-07-15T05:16:53.293Z,47.65
2017-07-15T05:17:53.564Z,47.94
2017-07-15T05:18:53.504Z,47.85
2017-07-15T05:19:53.437Z,47.65
2017-07-15T05:20:53.678Z,47.65
2017-07-15T05:21:53.318Z,47.55
2017-07-15T05:22:53.450Z,47.55
2017-07-15T05:23:53.185Z,47.75
2017-07-15T05:24:53.123Z,47.65
2017-07-15T05:25:53.059Z,47.85
2017-07-15T05:26:52.995Z,47.65
2017-07-15T05:27:52.936Z,47.45
2017-07-15T05:28:52.872Z,47.85
2017-07-15T05:29:52.474Z,47.75
2017-07-15T05:30:52.430Z,47.65
2017-07-15T05:31:52.692Z,47.65
2017-07-15T05:32:52.627Z,47.75
2017-07-15T05:33:52.557Z,47.75
2017-07-15T05:34:52.184Z,47.65
2017-07-15T05:35:52.686Z,47.75
2017-07-15T05:36:52.368Z,48.33
2017-07-15T05:37:52.305Z,47.75
2017-07-15T05:38:52.242Z,48.03
2017-07-15T05:39:52.182Z,48.33
2017-07-15T05:40:52.117Z,48.03
2017-07-15T05:41:51.717Z,48.13
2017-07-15T05:42:51.991Z,48.03
2017-07-15T05:43:51.931Z,47.94
2017-07-15T05:44:51.866Z,47.85
2017-07-15T05:45:51.467Z,48.23
2017-07-15T05:46:51.741Z,48.23
2017-07-15T05:47:51.340Z,48.52
2017-07-15T05:48:51.615Z,48.23
2017-07-15T05:49:51.553Z,48.52
2017-07-15T05:50:51.155Z,47.75
2017-07-15T05:51:51.425Z,48.13
2017-07-15T05:52:51.361Z,48.03
2017-07-15T05:53:51.300Z,48.13
2017-07-15T05:54:51.238Z,48.33
2017-07-15T05:55:50.838Z,48.03
2017-07-15T05:56:51.111Z,48.13
2017-07-15T05:57:51.048Z,48.03
2017-07-15T05:58:50.650Z,48.13
2017-07-15T05:59:50.921Z,48.13
2017-07-15T06:00:51.161Z,48.03
2017-07-15T06:01:50.795Z,48.52
2017-07-15T06:02:50.734Z,48.52
2017-07-15T06:03:50.669Z,48.61
2017-07-15T06:04:50.611Z,48.81
2017-07-15T06:05:50.554Z,48.61
2017-07-15T06:06:50.482Z,48.13
2017-07-15T06:07:50.432Z,48.33
2017-07-15T06:08:50.021Z,48.33
2017-07-15T06:09:49.962Z,48.42
2017-07-15T06:10:49.896Z,48.42
2017-07-15T06:11:50.170Z,48.33
2017-07-15T06:12:50.106Z,48.61
2017-07-15T06:13:50.043Z,48.33
2017-07-15T06:14:49.979Z,48.42
2017-07-15T06:15:49.917Z,48.61
2017-07-15T06:16:49.855Z,48.61
2017-07-15T06:17:49.792Z,48.13
2017-07-15T06:18:49.727Z,48.33
2017-07-15T06:19:49.666Z,48.23
2017-07-15T06:20:49.602Z,48.33
2017-07-15T06:21:49.540Z,48.33
2017-07-15T06:22:49.144Z,48.42
2017-07-15T06:23:49.413Z,48.33
2017-07-15T06:24:49.016Z,48.33
2017-07-15T06:25:49.439Z,48.42
2017-07-15T06:26:49.227Z,48.33
2017-07-15T06:27:49.161Z,48.23
2017-07-15T06:28:49.098Z,48.23
2017-07-15T06:29:49.041Z,48.71
2017-07-15T06:30:48.974Z,48.42
2017-07-15T06:31:48.910Z,48.33
2017-07-15T06:32:48.852Z,47.94
2017-07-15T06:33:48.451Z,48.33
2017-07-15T06:34:48.726Z,48.33
2017-07-15T06:35:48.916Z,48.33
2017-07-15T06:36:48.598Z,48.42
2017-07-15T06:37:48.533Z,48.33
2017-07-15T06:38:48.472Z,48.33
2017-07-15T06:39:48.084Z,48.61
2017-07-15T06:40:48.347Z,48.71
2017-07-15T06:41:48.284Z,48.61
2017-07-15T06:42:48.221Z,48.71
2017-07-15T06:43:48.158Z,48.61
2017-07-15T06:44:47.758Z,48.61
2017-07-15T06:45:47.694Z,48.61
2017-07-15T06:46:47.972Z,48.71
2017-07-15T06:47:47.913Z,48.42
2017-07-15T06:48:47.877Z,48.13
2017-07-15T06:49:47.446Z,48.81
2017-07-15T06:50:47.715Z,48.81
2017-07-15T06:51:47.652Z,48.52
2017-07-15T06:52:47.590Z,48.61
2017-07-15T06:53:47.534Z,48.42
2017-07-15T06:54:47.465Z,48.03
2017-07-15T06:55:47.407Z,48.33
2017-07-15T06:56:47.340Z,48.13
2017-07-15T06:57:47.278Z,48.33
2017-07-15T06:58:47.214Z,48.03
2017-07-15T06:59:47.154Z,48.42
2017-07-15T07:00:47.088Z,48.13
2017-07-15T07:01:47.027Z,48.52
2017-07-15T07:02:46.974Z,48.23
2017-07-15T07:03:46.898Z,48.33
2017-07-15T07:04:46.838Z,48.81
2017-07-15T07:05:47.126Z,48.42
2017-07-15T07:06:46.712Z,48.33
2017-07-15T07:07:46.312Z,48.03
2017-07-15T07:08:46.583Z,48.33
2017-07-15T07:09:46.187Z,48.81
2017-07-15T07:10:46.459Z,48.13
2017-07-15T07:11:46.396Z,48.13
2017-07-15T07:12:46.334Z,48.33
2017-07-15T07:13:45.935Z,48.03
2017-07-15T07:14:46.210Z,48.13
2017-07-15T07:15:46.144Z,48.13
2017-07-15T07:16:46.090Z,48.33
2017-07-15T07:17:46.020Z,48.03
2017-07-15T07:18:45.619Z,48.13
2017-07-15T07:19:45.890Z,48.13
2017-07-15T07:20:45.835Z,47.94
2017-07-15T07:21:45.766Z,48.23
2017-07-15T07:22:45.370Z,48.13
2017-07-15T07:23:45.639Z,48.13
2017-07-15T07:24:45.580Z,48.33
2017-07-15T07:25:45.516Z,48.52
2017-07-15T07:26:45.449Z,48.23
2017-07-15T07:27:45.387Z,48.23
2017-07-15T07:28:45.326Z,48.33
2017-07-15T07:29:45.264Z,48.52
2017-07-15T07:30:45.202Z,48.23
2017-07-15T07:31:44.801Z,48.23
2017-07-15T07:32:45.074Z,48.13
2017-07-15T07:33:44.675Z,48.23
2017-07-15T07:34:44.614Z,48.23
2017-07-15T07:35:44.894Z,48.03
2017-07-15T07:36:44.823Z,48.13
2017-07-15T07:37:44.760Z,48.13
2017-07-15T07:38:44.700Z,47.94
2017-07-15T07:39:44.638Z,48.03
2017-07-15T07:40:44.586Z,48.13
2017-07-15T07:41:44.509Z,48.13
2017-07-15T07:42:44.445Z,48.23
2017-07-15T07:43:44.384Z,48.23
2017-07-15T07:44:43.983Z,48.52
2017-07-15T07:45:44.257Z,48.23
2017-07-15T07:46:44.198Z,48.03
2017-07-15T07:47:44.131Z,48.33
2017-07-15T07:48:44.073Z,48.13
2017-07-15T07:49:44.007Z,48.03
2017-07-15T07:50:43.944Z,48.03
2017-07-15T07:51:43.545Z,48.03
2017-07-15T07:52:43.829Z,48.03
2017-07-15T07:53:43.754Z,48.13
2017-07-15T07:54:43.693Z,48.33
2017-07-15T07:55:43.627Z,48.52
2017-07-15T07:56:43.235Z,48.03
2017-07-15T07:57:43.503Z,48.13
2017-07-15T07:58:43.442Z,47.85
2017-07-15T07:59:43.380Z,48.13
2017-07-15T08:00:43.316Z,47.94
2017-07-15T08:01:43.258Z,47.85
2017-07-15T08:02:43.189Z,48.23
2017-07-15T08:03:43.131Z,48.23
2017-07-15T08:04:43.064Z,48.03
2017-07-15T08:05:43.001Z,48.13
2017-07-15T08:06:42.943Z,48.03
2017-07-15T08:07:42.876Z,48.03
2017-07-15T08:08:42.815Z,48.03
2017-07-15T08:09:42.750Z,48.13
2017-07-15T08:10:42.688Z,48.23
2017-07-15T08:11:42.622Z,48.03
2017-07-15T08:12:42.561Z,47.85
2017-07-15T08:13:42.497Z,48.03
2017-07-15T08:14:42.099Z,47.75
2017-07-15T08:15:42.386Z,47.75
2017-07-15T08:16:42.308Z,47.65
2017-07-15T08:17:42.248Z,47.65
2017-07-15T08:18:42.181Z,47.65
2017-07-15T08:19:42.119Z,47.45
2017-07-15T08:20:42.059Z,47.85
2017-07-15T08:21:41.657Z,47.75
2017-07-15T08:22:41.928Z,47.45
2017-07-15T08:23:41.866Z,47.45
2017-07-15T08:24:41.825Z,47.55
2017-07-15T08:25:41.742Z,47.55
2017-07-15T08:26:41.344Z,47.55
2017-07-15T08:27:41.624Z,47.75
2017-07-15T08:28:41.554Z,48.03
2017-07-15T08:29:41.154Z,47.94
2017-07-15T08:30:41.432Z,47.75
2017-07-15T08:31:41.030Z,47.85
2017-07-15T08:32:41.310Z,48.03
2017-07-15T08:33:41.245Z,47.55
2017-07-15T08:34:40.841Z,48.03
2017-07-15T08:35:41.119Z,47.75
2017-07-15T08:36:40.715Z,47.85
2017-07-15T08:37:40.987Z,47.85
2017-07-15T08:38:40.922Z,47.45
2017-07-15T08:39:40.525Z,47.75
2017-07-15T08:40:40.802Z,47.67
2017-07-15T08:41:40.738Z,47.55
2017-07-15T08:42:40.669Z,47.55
2017-07-15T08:43:40.626Z,47.55
2017-07-15T08:44:40.550Z,47.36
2017-07-15T08:45:40.148Z,47.65
2017-07-15T08:46:40.428Z,47.45
2017-07-15T08:47:40.359Z,47.75
2017-07-15T08:48:40.295Z,48.03
2017-07-15T08:49:40.232Z,47.85
2017-07-15T08:50:40.170Z,47.65
2017-07-15T08:51:40.107Z,47.85
2017-07-15T08:52:39.717Z,47.75
2017-07-15T08:53:39.979Z,47.75
2017-07-15T08:54:39.922Z,47.65
2017-07-15T08:55:39.955Z,47.75
2017-07-15T08:56:39.792Z,47.65
2017-07-15T08:57:39.728Z,47.65
2017-07-15T08:58:39.674Z,47.94
2017-07-15T08:59:39.604Z,47.55
2017-07-15T09:00:39.644Z,47.75
2017-07-15T09:01:39.494Z,47.55
2017-07-15T09:02:39.418Z,47.75
2017-07-15T09:03:39.019Z,47.75
2017-07-15T09:04:39.293Z,47.55
2017-07-15T09:05:39.264Z,47.94
2017-07-15T09:06:38.829Z,47.75
2017-07-15T09:07:39.101Z,47.27
2017-07-15T09:08:39.240Z,47.65
2017-07-15T09:09:38.639Z,47.45
2017-07-15T09:10:38.914Z,47.45
2017-07-15T09:11:38.851Z,47.27
2017-07-15T09:12:38.785Z,47.27
2017-07-15T09:13:38.758Z,47.27
2017-07-15T09:14:38.663Z,47.36
2017-07-15T09:15:38.266Z,47.27
2017-07-15T09:16:38.198Z,47.45
2017-07-15T09:17:38.476Z,47.27
2017-07-15T09:18:38.077Z,47.27
2017-07-15T09:19:38.367Z,47.55
2017-07-15T09:20:37.961Z,47.65
2017-07-15T09:21:37.886Z,47.36
2017-07-15T09:22:38.161Z,47.17
2017-07-15T09:23:38.095Z,47.17
2017-07-15T09:24:38.033Z,46.78
2017-07-15T09:25:38.013Z,47.09
2017-07-15T09:26:37.907Z,46.88
2017-07-15T09:27:37.845Z,46.97
2017-07-15T09:28:37.782Z,46.4
2017-07-15T09:29:37.390Z,46.69
2017-07-15T09:30:37.664Z,46.69
2017-07-15T09:31:37.261Z,46.59
2017-07-15T09:32:37.203Z,46.59
2017-07-15T09:33:37.477Z,46.69
2017-07-15T09:34:37.407Z,46.49
2017-07-15T09:35:37.347Z,46.78
2017-07-15T09:36:37.281Z,46.69
2017-07-15T09:37:37.227Z,46.88
2017-07-15T09:38:37.151Z,46.69
2017-07-15T09:39:36.755Z,46.78
2017-07-15T09:40:36.694Z,46.4
2017-07-15T09:41:36.966Z,46.78
2017-07-15T09:42:36.566Z,46.2
2017-07-15T09:43:36.843Z,46.69
2017-07-15T09:44:36.777Z,46.88
2017-07-15T09:45:36.714Z,46.78
2017-07-15T09:46:36.657Z,47.55
2017-07-15T09:47:36.253Z,47.36
2017-07-15T09:48:36.539Z,47.75
2017-07-15T09:49:36.463Z,47.85
2017-07-15T09:50:36.399Z,47.65
2017-07-15T09:51:36.337Z,48.03
2017-07-15T09:52:35.938Z,47.55
2017-07-15T09:53:35.879Z,48.13
2017-07-15T09:54:36.149Z,48.23
2017-07-15T09:55:36.084Z,48.13
2017-07-15T09:56:35.687Z,48.64
2017-07-15T09:57:35.962Z,48.44
2017-07-15T09:58:35.896Z,48.71
2017-07-15T09:59:35.841Z,48.74
2017-07-15T10:00:35.436Z,48.42
2017-07-15T10:01:35.708Z,48.33
2017-07-15T10:02:35.645Z,48.44
2017-07-15T10:03:35.584Z,49.1
2017-07-15T10:04:35.187Z,49.29
2017-07-15T10:05:35.709Z,49.1
2017-07-15T10:06:35.397Z,49
2017-07-15T10:07:35.334Z,49.1
2017-07-15T10:08:35.271Z,49.19
2017-07-15T10:09:35.205Z,48.9
2017-07-15T10:10:34.958Z,49.29
2017-07-15T10:11:35.086Z,49.29
2017-07-15T10:12:35.052Z,49.6
2017-07-15T10:13:34.622Z,49.41
2017-07-15T10:14:34.901Z,49.58
2017-07-15T10:15:34.495Z,49.51
2017-07-15T10:16:34.770Z,49.6
2017-07-15T10:17:34.709Z,49.22
2017-07-15T10:18:34.640Z,49.68
2017-07-15T10:19:34.577Z,49.7
2017-07-15T10:20:34.516Z,49.8
2017-07-15T10:21:34.451Z,49.6
2017-07-15T10:22:34.054Z,49.8
2017-07-15T10:23:34.329Z,49.6
2017-07-15T10:24:34.266Z,49.7
2017-07-15T10:25:34.207Z,49.51
2017-07-15T10:26:34.151Z,49.6
2017-07-15T10:27:34.077Z,49.19
2017-07-15T10:28:34.014Z,49.12
2017-07-15T10:29:33.949Z,49.51
2017-07-15T10:30:33.556Z,49.48
2017-07-15T10:31:33.826Z,49.51
2017-07-15T10:32:33.425Z,49.6
2017-07-15T10:33:33.699Z,49.51
2017-07-15T10:34:33.301Z,49.51
2017-07-15T10:35:33.573Z,49.9
2017-07-15T10:36:33.510Z,49.32
2017-07-15T10:37:33.117Z,49.41
2017-07-15T10:38:33.388Z,49.41
2017-07-15T10:39:33.325Z,49.12
2017-07-15T10:40:33.259Z,49.41
2017-07-15T10:41:33.197Z,49.41
2017-07-15T10:42:32.800Z,49.39
2017-07-15T10:43:33.071Z,49.39
2017-07-15T10:44:32.673Z,49.51
2017-07-15T10:45:32.947Z,49.41
2017-07-15T10:46:32.883Z,49.48
2017-07-15T10:47:32.821Z,49.02
2017-07-15T10:48:32.759Z,48.74
2017-07-15T10:49:32.705Z,48.93
2017-07-15T10:50:32.636Z,49.22
2017-07-15T10:51:32.569Z,49.51
2017-07-15T10:52:32.505Z,49.41
2017-07-15T10:53:32.447Z,49.32
2017-07-15T10:54:32.381Z,49.32
2017-07-15T10:55:32.320Z,49.51
2017-07-15T10:56:32.257Z,49.22
2017-07-15T10:57:32.192Z,49.12
2017-07-15T10:58:33.331Z,48.83
2017-07-15T10:59:32.069Z,48.64
2017-07-15T11:00:32.011Z,48.83
2017-07-15T11:01:31.942Z,48.83
2017-07-15T11:02:31.879Z,48.35
2017-07-15T11:03:31.816Z,48.35
2017-07-15T11:04:31.421Z,48.35
2017-07-15T11:05:31.693Z,48.35
2017-07-15T11:06:31.637Z,48.44
2017-07-15T11:07:31.566Z,48.74
2017-07-15T11:08:31.167Z,48.54
2017-07-15T11:09:31.461Z,48.74
2017-07-15T11:10:31.379Z,48.54
2017-07-15T11:11:31.317Z,48.35
2017-07-15T11:12:30.926Z,48.35
2017-07-15T11:13:31.194Z,48.44
2017-07-15T11:14:31.130Z,48.83
2017-07-15T11:15:31.066Z,48.35
2017-07-15T11:16:31.011Z,48.83
2017-07-15T11:17:30.949Z,48.25
2017-07-15T11:18:30.542Z,48.83
2017-07-15T11:19:30.818Z,48.74
2017-07-15T11:20:30.751Z,48.83
2017-07-15T11:21:30.705Z,48.35
2017-07-15T11:22:30.627Z,48.83
2017-07-15T11:23:30.227Z,48.44
2017-07-15T11:24:30.501Z,48.93
2017-07-15T11:25:30.439Z,48.93
2017-07-15T11:26:30.384Z,48.44
2017-07-15T11:27:30.314Z,48.16
2017-07-15T11:28:30.253Z,48.83
2017-07-15T11:29:30.187Z,48.35
2017-07-15T11:30:30.228Z,48.74
2017-07-15T11:31:30.062Z,48.64
2017-07-15T11:32:29.999Z,48.44
2017-07-15T11:33:29.939Z,48.06
2017-07-15T11:34:29.873Z,48.25
2017-07-15T11:35:29.477Z,48.44
2017-07-15T11:36:29.750Z,48.54
2017-07-15T11:37:29.685Z,48.06
2017-07-15T11:38:29.626Z,48.25
2017-07-15T11:39:29.226Z,48.74
2017-07-15T11:40:29.499Z,49.02
2017-07-15T11:41:29.100Z,48.16
2017-07-15T11:42:29.037Z,47.96
2017-07-15T11:43:29.315Z,48.16
2017-07-15T11:44:29.249Z,48.16
2017-07-15T11:45:29.185Z,48.16
2017-07-15T11:46:29.122Z,47.96
2017-07-15T11:47:29.065Z,48.06
2017-07-15T11:48:29.000Z,48.06
2017-07-15T11:49:28.939Z,48.64
2017-07-15T11:50:28.539Z,48.44
2017-07-15T11:51:28.810Z,48.16
2017-07-15T11:52:28.747Z,47.87
2017-07-15T11:53:28.685Z,48.16
2017-07-15T11:54:28.623Z,48.06
2017-07-15T11:55:28.571Z,48.06
2017-07-15T11:56:28.499Z,48.16
2017-07-15T11:57:28.440Z,48.44
2017-07-15T11:58:28.372Z,48.35
2017-07-15T11:59:28.316Z,48.64
2017-07-15T12:00:28.244Z,48.54
2017-07-15T12:01:28.181Z,48.64
2017-07-15T12:02:28.120Z,48.74
2017-07-15T12:03:28.057Z,48.64
2017-07-15T12:04:27.995Z,48.44
2017-07-15T12:05:27.934Z,48.35
2017-07-15T12:06:27.868Z,48.44
2017-07-15T12:07:27.805Z,48.16
2017-07-15T12:08:27.744Z,47.87
2017-07-15T12:09:27.682Z,48.35
2017-07-15T12:10:27.615Z,48.16
2017-07-15T12:11:27.220Z,48.25
2017-07-15T12:12:27.506Z,48.16
2017-07-15T12:13:27.433Z,48.64
2017-07-15T12:14:27.375Z,48.16
2017-07-15T12:15:27.302Z,48.16
2017-07-15T12:16:26.908Z,48.44
2017-07-15T12:17:27.182Z,48.25
2017-07-15T12:18:26.780Z,48.16
2017-07-15T12:19:27.053Z,48.16
2017-07-15T12:20:26.655Z,48.16
2017-07-15T12:21:26.596Z,48.06
2017-07-15T12:22:26.529Z,48.23
2017-07-15T12:23:26.805Z,48.03
2017-07-15T12:24:26.417Z,48.06
2017-07-15T12:26:26.619Z,48.54
2017-07-15T12:27:26.219Z,48.54
2017-07-15T12:28:26.153Z,48.35
2017-07-15T12:29:26.428Z,48.25
2017-07-15T12:30:26.362Z,48.54
2017-07-15T12:31:25.965Z,48.25
2017-07-15T12:32:26.239Z,48.54
2017-07-15T12:33:26.175Z,48.25
2017-07-15T12:34:26.112Z,48.74
2017-07-15T12:35:26.050Z,48.74
2017-07-15T12:36:25.989Z,48.25
2017-07-15T12:37:25.926Z,48.64
2017-07-15T12:38:25.861Z,48.74
2017-07-15T12:39:25.797Z,48.64
2017-07-15T12:40:25.741Z,48.74
2017-07-15T12:41:25.338Z,48.64
2017-07-15T12:42:25.613Z,48.64
2017-07-15T12:43:25.552Z,48.74
2017-07-15T12:44:25.150Z,48.44
2017-07-15T12:45:25.432Z,48.35
2017-07-15T12:46:25.026Z,48.35
2017-07-15T12:47:24.963Z,48.54
2017-07-15T12:48:25.254Z,48.74
2017-07-15T12:49:24.841Z,48.25
2017-07-15T12:50:25.114Z,48.64
2017-07-15T12:51:25.061Z,48.54
2017-07-15T12:52:25.001Z,48.44
2017-07-15T12:53:24.592Z,48.35
2017-07-15T12:54:24.861Z,48.35
2017-07-15T12:55:24.798Z,48.35